Time;durP1;ratioP1;P1;durP2;ratioP2;P2;SDS_P1;SDS_P2;PMS_P1;PMS_P2;Temp;Humidity;BMP_temperature;BMP_pressure;BME280_temperature;BME280_humidity;BME280_pressure;Samples;Min_cycle;Max_cycle;Signal;HPM_P1;HPM_P2
2021/05/06 00:30:15;;;;;;;14.87;3.83;;;;;;;13.29;59.76;98717.05;1784533;80;20999;-65
2021/05/06 00:32:44;;;;;;;5.97;3.55;;;;;;;13.28;59.51;98716.81;1784332;79;21760;-63
2021/05/06 00:35:11;;;;;;;8.93;4.40;;;;;;;13.26;59.42;98716.29;1779521;79;21118;-63
2021/05/06 00:37:48;;;;;;;5.53;2.45;;;;;;;13.24;59.29;98713.87;1753837;80;21178;-63
2021/05/06 00:40:16;;;;;;;9.45;2.65;;;;;;;13.26;59.19;98705.48;1783808;80;21192;-67
2021/05/06 00:42:57;;;;;;;21.10;5.45;;;;;;;13.23;59.22;98708.78;1755153;78;21042;-63
2021/05/06 01:07:01;;;;;;;2.72;2.25;;;;;;;12.98;60.30;98679.65;1796302;79;21114;-64
2021/05/06 01:09:13;;;;;;;3.92;2.58;;;;;;;12.96;60.55;98685.06;1791283;79;21125;-65
2021/05/06 01:11:46;;;;;;;3.40;2.87;;;;;;;12.91;60.72;98681.89;1796223;79;21132;-63
2021/05/06 01:14:12;;;;;;;10.90;2.52;;;;;;;12.89;60.94;98673.84;1796425;79;21124;-64
2021/05/06 01:16:41;;;;;;;8.53;3.05;;;;;;;12.83;61.32;98680.38;1796350;79;21213;-63
2021/05/06 01:19:11;;;;;;;7.10;1.92;;;;;;;12.76;61.65;98670.50;1769307;79;21165;-62
2021/05/06 01:21:39;;;;;;;3.15;2.33;;;;;;;12.66;62.14;98670.08;1796442;79;21536;-64
2021/05/06 01:24:09;;;;;;;7.90;2.90;;;;;;;12.59;62.43;98659.63;1796397;79;21156;-63
2021/05/06 01:26:43;;;;;;;3.92;2.60;;;;;;;12.57;62.49;98663.15;1796222;79;21135;-63
2021/05/06 01:29:14;;;;;;;6.35;2.52;;;;;;;12.53;62.71;98668.05;1795626;79;21304;-63
2021/05/06 01:31:44;;;;;;;2.83;1.57;;;;;;;12.46;63.10;98667.07;1795085;79;21243;-62
2021/05/06 01:34:15;;;;;;;2.90;2.22;;;;;;;12.42;63.32;98678.14;1796461;79;20982;-63
2021/05/06 01:36:48;;;;;;;5.00;2.37;;;;;;;12.38;63.54;98670.38;1795969;79;21140;-63
2021/05/06 01:39:31;;;;;;;4.17;2.67;;;;;;;12.34;63.74;98668.00;1795619;79;21125;-63
2021/05/06 02:00:56;;;;;;;4.95;2.62;;;;;;;12.11;64.47;98660.16;1753689;80;21554;-63
2021/05/06 02:03:21;;;;;;;6.10;3.27;;;;;;;12.07;64.58;98656.42;1783995;80;21141;-63
2021/05/06 02:05:55;;;;;;;3.02;2.80;;;;;;;12.04;64.62;98650.23;1784330;80;21582;-62
2021/05/06 02:08:24;;;;;;;9.40;3.37;;;;;;;11.99;64.84;98648.94;1753604;80;21230;-63
2021/05/06 02:10:58;;;;;;;3.92;2.35;;;;;;;11.99;64.79;98654.33;1784322;80;21547;-62
2021/05/06 02:13:26;;;;;;;6.65;2.83;;;;;;;11.97;64.86;98645.74;1751844;80;21169;-63
2021/05/06 02:16:01;;;;;;;3.30;2.35;;;;;;;12.00;64.75;98652.44;1784243;80;21094;-64
2021/05/06 02:18:29;;;;;;;;;;;;;;;11.96;64.94;98649.52;1787109;80;21181;-64
2021/05/06 02:20:57;;;;;;;4.10;2.22;;;;;;;11.93;64.90;98646.59;1784359;80;21194;-64
2021/05/06 02:23:25;;;;;;;4.28;2.80;;;;;;;11.91;64.98;98642.02;1753727;80;21133;-64
2021/05/06 02:25:54;;;;;;;4.40;3.98;;;;;;;11.90;64.96;98636.37;1784292;80;21165;-64
2021/05/06 02:28:21;;;;;;;9.33;2.67;;;;;;;11.90;64.90;98635.83;1784278;80;21134;-63
2021/05/06 02:30:50;;;;;;;4.80;3.80;;;;;;;11.88;64.96;98630.48;1753801;80;21182;-62
2021/05/06 02:33:19;;;;;;;3.83;2.65;;;;;;;11.88;64.84;98638.02;1784314;80;22624;-65
2021/05/06 02:35:47;;;;;;;3.62;2.77;;;;;;;11.87;64.84;98633.71;1784293;79;21172;-62
2021/05/06 02:38:17;;;;;;;5.15;2.35;;;;;;;11.86;64.89;98640.72;1784333;80;21334;-64
2021/05/06 02:40:45;;;;;;;5.20;2.50;;;;;;;11.85;64.93;98639.11;1784379;80;21097;-63
2021/05/06 02:43:14;;;;;;;8.90;2.77;;;;;;;11.86;64.86;98638.83;1785264;79;21136;-63
2021/05/06 02:45:42;;;;;;;3.92;1.85;;;;;;;11.86;64.84;98639.38;1798286;79;21180;-64
2021/05/06 02:48:10;;;;;;;5.20;2.75;;;;;;;11.87;64.85;98642.33;1798796;78;21097;-63
2021/05/06 02:50:43;;;;;;;7.17;2.98;;;;;;;11.88;64.86;98643.95;1798187;79;21204;-63
2021/05/06 02:53:13;;;;;;;3.58;2.58;;;;;;;11.88;64.91;98646.64;1798783;79;21041;-63
2021/05/06 02:58:29;;;;;;;5.45;2.50;;;;;;;11.89;64.86;98636.94;1798927;79;22094;-63
2021/05/06 03:03:37;;;;;;;6.45;2.52;;;;;;;11.90;64.92;98648.48;1798369;79;21038;-63
2021/05/06 03:05:59;;;;;;;3.67;2.75;;;;;;;11.89;64.98;98648.25;1798674;79;21172;-63
2021/05/06 03:08:33;;;;;;;5.60;2.30;;;;;;;11.87;65.02;98645.84;1798056;79;21132;-63
2021/05/06 03:24:32;;;;;;;5.22;2.60;;;;;;;11.73;65.72;98646.23;1798832;79;22377;-64
2021/05/06 03:27:01;;;;;;;3.17;2.95;;;;;;;11.72;65.72;98648.12;1798870;79;21184;-64
2021/05/06 03:29:34;;;;;;;3.90;2.90;;;;;;;11.70;65.80;98642.17;1798801;79;21139;-67
2021/05/06 03:32:22;;;;;;;6.83;2.80;;;;;;;11.70;65.89;98645.43;1779957;80;21180;-64
2021/05/06 03:35:05;;;;;;;4.25;2.67;;;;;;;11.69;66.06;98644.63;1777189;80;21460;-64
2021/05/06 03:43:27;;;;;;;10.35;2.85;;;;;;;11.70;66.19;98637.35;1779695;80;21574;-64
2021/05/06 03:46:18;;;;;;;3.17;2.67;;;;;;;11.74;66.11;98633.84;1776678;80;21003;-63
2021/05/06 04:18:55;;;;;;;3.77;2.95;;;;;;;12.11;64.90;98679.56;1779915;80;22534;-64
2021/05/06 04:37:46;;;;;;;3.75;2.55;;;;;;;12.58;63.14;98701.17;1737042;81;21124;-64
2021/05/06 04:54:32;;;;;;;8.35;2.70;;;;;;;12.77;62.39;98688.27;1761390;81;21144;-65
2021/05/06 05:04:57;;;;;;;16.00;8.40;;;;;;;13.01;61.68;98704.70;1761301;81;21147;-62
2021/05/06 05:07:30;;;;;;;9.60;6.40;;;;;;;13.09;61.39;98717.55;1779850;80;21085;-64
2021/05/06 05:15:07;;;;;;;5.22;3.85;;;;;;;13.30;60.76;98719.47;1761166;81;21226;-63
2021/05/06 05:21:13;;;;;;;6.87;3.30;;;;;;;13.34;60.40;98723.19;1761359;81;21017;-63
2021/05/06 05:25:41;;;;;;;2.50;2.27;;;;;;;13.37;60.52;98707.77;1761312;81;21194;-63
2021/05/06 05:28:08;;;;;;;7.30;3.47;;;;;;;13.41;60.56;98709.33;1755452;80;21185;-64
2021/05/06 05:30:39;;;;;;;7.92;3.30;;;;;;;13.40;60.60;98720.67;1761322;81;21597;-65
2021/05/06 05:33:11;;;;;;;10.95;3.60;;;;;;;13.40;60.44;98707.17;1779734;80;21236;-65
2021/05/06 05:35:43;;;;;;;4.00;2.55;;;;;;;13.43;60.53;98713.87;1761291;81;21127;-63
2021/05/06 05:38:27;;;;;;;3.22;2.77;;;;;;;13.42;60.47;98738.76;1780031;80;22149;-62
2021/05/06 05:56:29;;;;;;;3.20;2.90;;;;;;;13.45;60.55;98731.95;1753040;80;21046;-64
2021/05/06 05:58:57;;;;;;;3.72;3.20;;;;;;;13.48;60.57;98728.66;1752971;80;21130;-64
2021/05/06 06:01:27;;;;;;;5.62;2.60;;;;;;;13.48;60.72;98730.02;1784934;80;22732;-64
2021/05/06 06:03:56;;;;;;;6.15;3.02;;;;;;;13.48;60.74;98751.08;1784982;80;20990;-64
2021/05/06 06:06:23;;;;;;;7.58;3.83;;;;;;;13.48;60.74;98738.92;1784983;80;21042;-65
2021/05/06 06:08:51;;;;;;;5.05;3.62;;;;;;;13.54;60.71;98747.77;1753005;80;21026;-64
2021/05/06 06:11:20;;;;;;;7.90;4.05;;;;;;;13.56;60.66;98757.73;1785003;80;21149;-65
2021/05/06 06:13:49;;;;;;;3.83;3.37;;;;;;;13.60;60.64;98749.84;1785022;80;22078;-66
2021/05/06 06:16:24;;;;;;;5.25;3.40;;;;;;;13.63;60.56;98748.70;1784932;80;21122;-64
2021/05/06 06:18:57;;;;;;;6.12;3.47;;;;;;;13.70;60.44;98763.21;1784957;80;20983;-64
2021/05/06 06:23:56;;;;;;;7.65;3.62;;;;;;;13.79;60.36;98762.26;1785006;80;21086;-64
2021/05/06 06:26:24;;;;;;;10.75;3.50;;;;;;;13.85;60.27;98780.02;1753140;80;21169;-64
2021/05/06 06:28:57;;;;;;;8.18;3.75;;;;;;;13.90;60.38;98783.99;1784895;80;21152;-63
2021/05/06 06:31:28;;;;;;;12.55;3.95;;;;;;;13.94;60.11;98795.02;1752882;80;21085;-63
2021/05/06 06:33:56;;;;;;;5.37;3.67;;;;;;;13.94;60.10;98776.89;1784920;80;21108;-62
2021/05/06 06:36:24;;;;;;;7.17;4.58;;;;;;;13.98;60.15;98767.64;1785054;80;21113;-63
2021/05/06 06:38:57;;;;;;;15.55;4.35;;;;;;;14.01;60.20;98780.56;1784925;79;21356;-63
2021/05/06 06:41:23;;;;;;;11.45;5.30;;;;;;;14.06;60.23;98802.66;1785466;79;20992;-63
2021/05/06 06:43:52;;;;;;;10.03;4.00;;;;;;;14.09;60.17;98783.16;1799550;79;22245;-63
2021/05/06 06:46:20;;;;;;;12.13;4.67;;;;;;;14.14;60.15;98793.90;1799430;78;21168;-64
2021/05/06 06:48:48;;;;;;;10.72;4.42;;;;;;;14.18;60.11;98793.02;1799458;79;21152;-64
2021/05/06 06:51:16;;;;;;;9.98;4.28;;;;;;;14.17;60.15;98800.86;1771351;79;21835;-63
2021/05/06 06:53:44;;;;;;;14.73;4.47;;;;;;;14.19;60.19;98800.03;1799042;79;21161;-63
2021/05/06 06:56:13;;;;;;;7.97;4.25;;;;;;;14.19;60.23;98799.23;1770600;79;21145;-65
2021/05/06 06:58:41;;;;;;;4.45;2.95;;;;;;;14.19;60.29;98814.10;1798826;79;21148;-63
2021/05/06 07:01:09;;;;;;;4.90;4.00;;;;;;;14.20;60.34;98816.48;1778073;79;21157;-65
2021/05/06 07:03:37;;;;;;;5.95;3.95;;;;;;;14.21;60.39;98820.81;1717536;83;22396;-63
2021/05/06 07:06:06;;;;;;;6.53;3.33;;;;;;;14.20;60.48;98817.84;1717397;82;21023;-65
2021/05/06 07:08:37;;;;;;;6.72;3.65;;;;;;;14.21;60.60;98813.23;1674238;83;21142;-64
2021/05/06 07:11:07;;;;;;;8.23;3.77;;;;;;;14.21;60.64;98821.35;1686984;84;21173;-64
2021/05/06 07:13:37;;;;;;;9.15;4.00;;;;;;;14.19;60.75;98858.72;1717444;83;21008;-64
2021/05/06 07:16:07;;;;;;;5.47;4.55;;;;;;;14.16;60.96;98854.69;1717364;83;21382;-64
2021/05/06 07:18:37;;;;;;;4.40;3.45;;;;;;;14.13;61.25;98857.19;1717382;83;20975;-65
2021/05/06 07:21:06;;;;;;;4.78;2.98;;;;;;;14.09;61.61;98844.81;1717334;83;21161;-64
2021/05/06 07:23:34;;;;;;;8.93;4.28;;;;;;;14.05;62.25;98854.60;1696622;83;21125;-64
2021/05/06 07:26:04;;;;;;;6.87;4.40;;;;;;;14.02;62.90;98854.36;1717420;83;21190;-68
2021/05/06 07:28:38;;;;;;;7.80;4.30;;;;;;;13.98;63.53;98859.56;1696762;83;21150;-64
2021/05/06 07:31:10;;;;;;;7.92;4.80;;;;;;;13.94;64.15;98855.30;1717606;83;21153;-64
2021/05/06 07:33:41;;;;;;;10.23;6.30;;;;;;;13.92;64.62;98864.23;1717516;83;21599;-62
2021/05/06 07:36:11;;;;;;;5.58;4.95;;;;;;;13.92;65.13;98854.77;1717433;83;21162;-64
2021/05/06 07:38:41;;;;;;;9.33;4.65;;;;;;;13.92;65.87;98862.88;1717525;83;21615;-62
2021/05/06 07:41:12;;;;;;;10.20;5.12;;;;;;;13.91;66.22;98873.97;1717413;83;21188;-62
2021/05/06 07:43:43;;;;;;;6.47;4.65;;;;;;;13.88;66.75;98871.31;1711974;83;21575;-64
2021/05/06 07:46:13;;;;;;;7.35;4.42;;;;;;;13.87;67.46;98892.67;1733772;81;21590;-63
2021/05/06 07:48:42;;;;;;;6.47;4.75;;;;;;;13.79;67.91;98900.64;1710271;83;21117;-66
2021/05/06 07:51:13;;;;;;;5.92;5.25;;;;;;;13.69;68.69;98895.36;1734006;82;21130;-73
2021/05/06 07:53:47;;;;;;;5.67;4.35;;;;;;;13.64;69.70;98896.77;1733112;81;21601;-67
2021/05/06 07:56:15;;;;;;;4.25;3.83;;;;;;;13.63;69.75;98899.20;1763329;81;21162;-64
2021/05/06 07:58:43;;;;;;;5.15;3.98;;;;;;;13.61;70.32;98926.53;1765905;81;21570;-65
2021/05/06 08:01:10;;;;;;;4.95;4.45;;;;;;;13.58;71.01;98933.84;1736961;81;21179;-66
2021/05/06 08:03:39;;;;;;;4.12;3.47;;;;;;;13.49;71.61;98956.64;1735473;82;21171;-64
2021/05/06 08:06:07;;;;;;;5.08;3.95;;;;;;;13.37;72.62;98937.88;1735422;82;21198;-66
2021/05/06 08:08:37;;;;;;;4.55;3.80;;;;;;;13.21;73.25;98950.72;1735362;82;21032;-66
2021/05/06 08:11:09;;;;;;;4.65;3.25;;;;;;;12.98;74.27;98930.66;1709962;82;21170;-67
2021/05/06 08:13:36;;;;;;;3.40;2.67;;;;;;;12.84;74.82;98937.81;1712793;83;21574;-67
2021/05/06 08:16:05;;;;;;;3.87;2.77;;;;;;;12.66;75.06;98958.16;1735078;82;21139;-67
2021/05/06 08:18:33;;;;;;;4.60;2.50;;;;;;;12.51;75.62;98973.13;1735566;82;21163;-66
2021/05/06 08:21:02;;;;;;;2.75;1.82;;;;;;;12.38;75.55;98975.62;1735385;82;22010;-66
2021/05/06 08:23:31;;;;;;;1.92;1.60;;;;;;;12.30;75.82;98959.50;1735299;82;21175;-67
2021/05/06 08:26:01;;;;;;;2.12;1.98;;;;;;;12.24;75.94;98974.09;1711044;82;21119;-66
2021/05/06 08:28:31;;;;;;;2.22;1.60;;;;;;;12.13;75.89;98957.72;1707092;82;21568;-67
2021/05/06 08:30:58;;;;;;;1.25;1.15;;;;;;;12.06;75.84;98967.98;1735245;82;21353;-66
2021/05/06 08:33:26;;;;;;;1.17;1.07;;;;;;;12.03;75.48;98971.24;1712649;83;21241;-66
2021/05/06 08:36:06;;;;;;;2.47;1.60;;;;;;;12.03;75.75;98973.40;1709016;83;21059;-67
2021/05/06 08:38:35;;;;;;;1.87;1.30;;;;;;;12.06;75.41;98977.41;1708443;84;21144;-68
2021/05/06 08:41:04;;;;;;;1.55;1.40;;;;;;;12.10;74.84;98983.86;1681139;84;21173;-66
2021/05/06 08:43:36;;;;;;;2.15;1.45;;;;;;;12.11;73.79;98993.03;1680337;84;22492;-69
2021/05/06 08:46:04;;;;;;;1.77;1.42;;;;;;;12.12;73.65;98984.41;1709524;82;21201;-67
2021/05/06 08:48:34;;;;;;;3.42;1.77;;;;;;;12.14;73.96;98986.27;1681848;84;21163;-67
2021/05/06 08:51:05;;;;;;;3.22;1.45;;;;;;;12.14;73.66;98991.11;1705652;84;21043;-67
2021/05/06 08:53:37;;;;;;;1.30;1.20;;;;;;;12.19;73.44;98997.02;1705534;84;21011;-69
2021/05/06 08:56:05;;;;;;;1.57;1.47;;;;;;;12.22;73.43;99011.31;1707627;83;21204;-66
2021/05/06 08:58:32;;;;;;;1.50;1.40;;;;;;;12.27;73.00;99022.62;1710092;83;21682;-65
2021/05/06 09:01:01;;;;;;;4.72;2.00;;;;;;;12.28;72.96;99025.02;1710264;83;21153;-65
2021/05/06 09:03:29;;;;;;;2.25;2.00;;;;;;;12.31;72.87;99020.98;1707421;83;21172;-67
2021/05/06 09:06:18;;;;;;;2.52;1.80;;;;;;;12.34;72.80;99012.32;1710233;83;21634;-66
2021/05/06 09:08:53;;;;;;;5.85;1.95;;;;;;;12.39;73.17;99031.17;1710271;83;21280;-67
2021/05/06 09:11:32;;;;;;;1.98;1.67;;;;;;;12.39;72.95;99044.12;1710154;83;21038;-65
2021/05/06 09:14:07;;;;;;;2.60;2.25;;;;;;;12.40;72.98;99045.73;1709446;83;21070;-65
2021/05/06 09:16:42;;;;;;;4.12;2.10;;;;;;;12.37;72.45;99042.80;1710312;83;21739;-65
2021/05/06 09:19:21;;;;;;;4.20;2.42;;;;;;;12.35;72.33;99044.41;1710168;83;21189;-66
2021/05/06 09:21:48;;;;;;;3.45;2.37;;;;;;;12.38;71.92;99055.17;1710216;83;21883;-66
2021/05/06 09:26:58;;;;;;;3.10;2.08;;;;;;;12.53;71.77;99051.86;1709881;83;21221;-65
2021/05/06 09:29:34;;;;;;;2.50;2.30;;;;;;;12.61;71.59;99049.14;1710230;83;21026;-65
2021/05/06 09:32:18;;;;;;;;;;;;;;;12.68;71.48;99052.32;1712757;83;21151;-67
2021/05/06 09:34:49;;;;;;;4.30;2.20;;;;;;;12.74;70.89;99054.45;1709958;83;21232;-66
2021/05/06 09:37:29;;;;;;;3.60;3.30;;;;;;;12.79;69.95;99052.53;1707366;83;21160;-65
2021/05/06 09:40:03;;;;;;;2.47;2.00;;;;;;;12.87;69.40;99054.63;1709374;83;21022;-67
2021/05/06 09:42:48;;;;;;;5.30;3.25;;;;;;;12.97;69.03;99061.31;1710244;83;21010;-66
2021/05/06 09:45:27;;;;;;;2.02;1.62;;;;;;;13.05;68.01;99062.59;1710193;82;21234;-65
2021/05/06 09:48:15;;;;;;;2.75;1.75;;;;;;;13.17;67.39;99063.09;1707362;83;22290;-66
2021/05/06 09:50:48;;;;;;;2.75;1.92;;;;;;;13.22;64.63;99075.74;1710133;83;21152;-66
2021/05/06 09:53:20;;;;;;;2.45;2.05;;;;;;;13.19;64.83;99064.95;1710357;83;27691;-67
2021/05/06 09:55:49;;;;;;;2.20;1.90;;;;;;;13.28;64.99;99065.98;1707548;83;21148;-67
2021/05/06 09:58:26;;;;;;;4.05;2.27;;;;;;;13.42;65.54;99075.59;1707339;83;21180;-65
2021/05/06 10:00:54;;;;;;;2.95;2.62;;;;;;;13.55;64.87;99066.81;1707305;83;21204;-66
2021/05/06 10:03:33;;;;;;;3.77;2.55;;;;;;;13.60;64.39;99072.72;1709999;83;21634;-66
2021/05/06 10:06:18;;;;;;;5.40;2.55;;;;;;;13.64;64.24;99075.11;1706839;83;21153;-65
2021/05/06 10:08:46;;;;;;;2.98;2.02;;;;;;;13.71;63.19;99071.00;1710054;83;21144;-65
2021/05/06 10:11:19;;;;;;;3.65;1.80;;;;;;;13.81;63.53;99078.20;1707396;83;21592;-64
2021/05/06 10:13:49;;;;;;;2.72;2.52;;;;;;;13.91;63.36;99079.42;1710328;83;27519;-65
2021/05/06 10:16:18;;;;;;;3.72;1.98;;;;;;;13.97;61.03;99075.58;1710189;83;21644;-64
2021/05/06 10:18:45;;;;;;;5.03;1.98;;;;;;;14.02;61.31;99083.63;1707312;83;21181;-66
2021/05/06 10:21:16;;;;;;;2.67;2.22;;;;;;;14.09;58.89;99094.12;1710135;83;21005;-65
2021/05/06 10:23:51;;;;;;;5.42;2.40;;;;;;;14.13;57.46;99093.25;1710245;83;21560;-66
2021/05/06 10:26:21;;;;;;;2.58;1.77;;;;;;;14.23;57.05;99088.28;1707469;83;21354;-67
2021/05/06 10:28:51;;;;;;;2.30;2.10;;;;;;;14.28;57.04;99100.39;1707314;83;21188;-66
2021/05/06 10:31:19;;;;;;;4.10;2.00;;;;;;;14.38;56.49;99098.95;1710212;83;21140;-64
2021/05/06 10:33:47;;;;;;;3.62;2.20;;;;;;;14.50;55.36;99105.29;1707228;83;21045;-65
2021/05/06 10:36:16;;;;;;;1.87;1.62;;;;;;;14.61;55.71;99087.84;1702206;83;21042;-66
2021/05/06 10:38:44;;;;;;;2.65;1.60;;;;;;;14.74;53.96;99092.53;1700423;84;21390;-65
2021/05/06 10:41:35;;;;;;;2.10;2.00;;;;;;;14.83;52.41;99092.94;1701486;84;21236;-66
2021/05/06 10:44:09;;;;;;;4.08;2.47;;;;;;;14.92;52.18;99111.22;1700284;83;21181;-64
2021/05/06 10:47:02;;;;;;;;;;;;;;;14.99;51.30;99094.88;1702963;84;21654;-66
2021/05/06 10:49:45;;;;;;;2.42;2.22;;;;;;;15.01;51.23;99110.84;1700588;84;25661;-64
2021/05/06 10:52:16;;;;;;;2.40;2.17;;;;;;;14.98;50.51;99104.10;1700694;84;22565;-65
2021/05/06 10:54:53;;;;;;;2.65;1.70;;;;;;;14.95;50.78;99103.89;1701432;84;21869;-66
2021/05/06 10:57:31;;;;;;;3.72;2.17;;;;;;;14.93;50.13;99116.36;1700438;84;21226;-67
2021/05/06 10:59:58;;;;;;;2.42;1.62;;;;;;;14.92;50.14;99110.67;1700386;84;21149;-64
2021/05/06 11:02:45;;;;;;;2.92;1.92;;;;;;;14.91;50.53;99113.16;1700321;84;21172;-67
2021/05/06 11:05:27;;;;;;;7.15;1.65;;;;;;;14.97;50.52;99117.92;1700104;84;21219;-65
2021/05/06 11:08:19;;;;;;;2.02;1.70;;;;;;;15.03;49.70;99113.50;1700409;84;21133;-66
2021/05/06 11:10:53;;;;;;;3.92;2.20;;;;;;;15.14;48.83;99100.08;1700453;84;21201;-65
2021/05/06 11:13:23;;;;;;;2.83;2.17;;;;;;;15.29;48.55;99099.05;1700327;84;21185;-67
2021/05/06 11:15:51;;;;;;;7.80;1.65;;;;;;;15.39;47.23;99101.59;1700399;84;21129;-67
2021/05/06 11:18:44;;;;;;;3.72;2.08;;;;;;;15.44;46.62;99106.12;1700414;84;22348;-64
2021/05/06 11:21:34;;;;;;;1.60;1.50;;;;;;;15.47;46.58;99101.46;1665350;84;21634;-65
2021/05/06 11:24:26;;;;;;;6.05;2.10;;;;;;;15.52;46.47;99104.12;1701512;84;21169;-66
2021/05/06 11:27:15;;;;;;;3.42;3.15;;;;;;;15.57;45.97;99110.81;1701553;84;21156;-67
2021/05/06 11:29:45;;;;;;;4.95;2.15;;;;;;;15.60;45.84;99116.44;1701634;84;21196;-65
2021/05/06 11:32:35;;;;;;;3.02;1.67;;;;;;;15.61;44.89;99114.53;1701523;84;21173;-65
2021/05/06 11:35:05;;;;;;;1.82;1.55;;;;;;;15.62;44.12;99103.41;1701777;83;21236;-65
2021/05/06 11:37:35;;;;;;;3.77;1.50;;;;;;;15.64;43.67;99124.23;1710272;83;21108;-67
2021/05/06 11:40:08;;;;;;;1.57;1.47;;;;;;;15.60;43.81;99110.20;1710140;83;21172;-65
2021/05/06 11:42:38;;;;;;;3.15;1.52;;;;;;;15.55;42.86;99115.71;1710402;83;21196;-64
2021/05/06 11:45:23;;;;;;;1.45;1.35;;;;;;;15.56;43.66;99116.78;1710171;82;21280;-66
2021/05/06 11:47:55;;;;;;;1.60;1.22;;;;;;;15.57;42.82;99126.53;1707279;83;21226;-67
2021/05/06 11:50:32;;;;;;;1.67;1.42;;;;;;;15.54;42.88;99118.19;1707379;83;21188;-65
2021/05/06 11:53:01;;;;;;;3.02;1.85;;;;;;;15.51;43.18;99131.77;1710285;83;21623;-65
2021/05/06 11:55:40;;;;;;;1.50;1.40;;;;;;;15.53;43.71;99123.35;1707497;83;21633;-65
2021/05/06 11:58:14;;;;;;;2.10;1.42;;;;;;;15.57;43.52;99122.47;1710203;83;21630;-64
2021/05/06 12:00:46;;;;;;;1.95;1.30;;;;;;;15.57;41.18;99134.66;1706648;83;21231;-67
2021/05/06 12:03:16;;;;;;;1.05;1.02;;;;;;;15.53;40.99;99124.16;1710348;83;21152;-66
2021/05/06 12:05:56;;;;;;;2.52;1.45;;;;;;;15.49;40.63;99150.77;1710231;83;21136;-64
2021/05/06 12:08:31;;;;;;;3.77;2.55;;;;;;;15.44;41.33;99119.13;1710242;83;21177;-66
2021/05/06 12:11:03;;;;;;;1.22;1.12;;;;;;;15.47;41.95;99116.36;1710259;83;21175;-66
2021/05/06 12:13:34;;;;;;;1.35;1.25;;;;;;;15.56;41.38;99115.42;1710124;83;21149;-65
2021/05/06 12:16:20;;;;;;;1.55;1.45;;;;;;;15.68;41.07;99113.61;1710238;83;21192;-65
2021/05/06 12:19:12;;;;;;;3.22;1.40;;;;;;;15.77;41.13;99112.38;1707368;83;21077;-66
2021/05/06 12:21:47;;;;;;;1.40;1.30;;;;;;;15.84;41.05;99112.78;1710200;83;21233;-66
2021/05/06 12:24:38;;;;;;;1.40;1.30;;;;;;;15.94;41.00;99126.16;1710166;83;21210;-65
2021/05/06 12:27:24;;;;;;;1.50;1.40;;;;;;;15.98;40.46;99125.27;1710136;83;21208;-65
2021/05/06 12:30:05;;;;;;;3.12;1.32;;;;;;;16.02;40.20;99125.46;1710281;83;21140;-64
2021/05/06 12:32:34;;;;;;;3.47;1.77;;;;;;;16.02;40.03;99115.97;1710184;83;21613;-66
2021/05/06 12:35:04;;;;;;;2.05;1.55;;;;;;;16.11;40.25;99111.48;1709957;83;21208;-64
2021/05/06 12:37:32;;;;;;;2.67;1.52;;;;;;;16.25;40.52;99114.20;1700363;84;21215;-65
2021/05/06 12:40:03;;;;;;;2.20;1.37;;;;;;;16.38;39.89;99106.06;1700212;84;21165;-65
2021/05/06 12:42:35;;;;;;;1.50;1.20;;;;;;;16.57;39.25;99117.61;1700235;83;21223;-65
2021/05/06 12:45:05;;;;;;;8.73;1.50;;;;;;;16.71;38.25;99112.74;1700620;84;21625;-65
2021/05/06 12:47:43;;;;;;;1.15;1.07;;;;;;;16.80;38.27;99138.08;1700383;84;21610;-65
2021/05/06 12:50:24;;;;;;;1.35;1.25;;;;;;;16.94;36.80;99121.20;1700319;84;22603;-65
2021/05/06 12:53:09;;;;;;;1.60;1.50;;;;;;;17.03;37.12;99117.20;1700231;84;21185;-65
2021/05/06 12:55:41;;;;;;;3.33;1.52;;;;;;;17.16;36.04;99110.94;1700174;84;21169;-65
2021/05/06 13:00:59;;;;;;;1.67;1.52;;;;;;;17.33;36.71;99110.52;1883327;76;22692;-64
2021/05/06 13:03:38;;;;;;;3.20;1.10;;;;;;;17.46;35.52;99107.48;1854352;77;20961;-65
2021/05/06 13:06:16;;;;;;;2.10;1.80;;;;;;;17.59;35.86;99103.94;1814045;79;21239;-64
2021/05/06 13:08:46;;;;;;;3.42;1.20;;;;;;;17.76;34.53;99104.59;1854442;77;21045;-65
2021/05/06 13:11:17;;;;;;;3.15;1.40;;;;;;;17.94;34.34;99114.45;1751378;80;21138;-64
2021/05/06 13:13:51;;;;;;;4.33;1.13;;;;;;;18.04;34.14;99118.27;1854736;77;20994;-66
2021/05/06 13:16:48;;;;;;;1.50;1.15;;;;;;;18.05;34.19;99117.16;1814088;79;21120;-65
2021/05/06 13:19:19;;;;;;;1.50;1.20;;;;;;;18.08;34.24;99117.11;1774283;80;23046;-65
2021/05/06 13:21:53;;;;;;;2.77;1.75;;;;;;;18.06;33.35;99104.36;1814008;79;20971;-64
2021/05/06 13:24:23;;;;;;;5.08;1.60;;;;;;;18.08;32.85;99108.36;1751419;80;21085;-64
2021/05/06 13:26:50;;;;;;;3.47;1.25;;;;;;;18.12;33.05;99105.28;1782349;79;21181;-65
2021/05/06 13:29:21;;;;;;;1.00;0.90;;;;;;;18.23;33.18;99101.14;1854353;77;21542;-65
2021/05/06 13:31:49;;;;;;;2.50;1.72;;;;;;;18.46;32.28;99101.89;1813988;79;21595;-66
2021/05/06 13:34:23;;;;;;;5.75;1.60;;;;;;;18.63;32.27;99099.78;1781882;80;21043;-65
2021/05/06 13:37:02;;;;;;;2.37;1.42;;;;;;;18.60;32.15;99112.13;1782630;79;21244;-65
2021/05/06 13:39:33;;;;;;;1.42;1.00;;;;;;;18.79;31.27;99098.22;1781751;80;20960;-65
2021/05/06 13:42:00;;;;;;;1.25;1.15;;;;;;;18.99;31.11;99109.08;1811182;79;21150;-64
2021/05/06 13:44:29;;;;;;;1.20;1.05;;;;;;;19.17;31.18;99099.78;1788790;78;22164;-66
2021/05/06 13:47:02;;;;;;;11.83;1.50;;;;;;;19.23;30.24;99099.87;1788874;78;21563;-66
2021/05/06 13:49:31;;;;;;;1.82;0.98;;;;;;;19.13;30.06;99100.98;1820681;78;21175;-64
2021/05/06 13:52:00;;;;;;;1.65;1.12;;;;;;;19.20;30.28;99114.12;1820955;78;21574;-63
2021/05/06 13:54:29;;;;;;;1.10;1.00;;;;;;;19.32;29.76;99116.22;1820869;78;21097;-66
2021/05/06 13:56:57;;;;;;;5.03;1.27;;;;;;;19.46;29.27;99103.25;1820837;78;22417;-64
2021/05/06 13:59:25;;;;;;;6.53;1.12;;;;;;;19.61;28.99;99103.31;1820715;78;21145;-65
2021/05/06 14:01:56;;;;;;;1.70;1.07;;;;;;;19.65;28.90;99101.53;1820905;78;21567;-65
2021/05/06 14:04:25;;;;;;;2.58;1.05;;;;;;;19.68;28.72;99102.23;1820809;78;21183;-67
2021/05/06 14:06:53;;;;;;;1.77;1.32;;;;;;;19.79;28.05;99130.80;1820914;78;21161;-64
2021/05/06 14:09:22;;;;;;;2.33;0.95;;;;;;;19.89;27.54;99132.63;1820832;78;22228;-66
2021/05/06 14:11:51;;;;;;;2.20;0.88;;;;;;;19.87;27.24;99111.67;1788351;78;21018;-65
2021/05/06 14:14:19;;;;;;;4.33;1.10;;;;;;;19.80;27.24;99105.12;1820253;78;20995;-66
2021/05/06 14:16:47;;;;;;;2.05;1.05;;;;;;;19.61;27.33;99112.30;1788401;78;21215;-67
2021/05/06 14:19:15;;;;;;;7.67;0.90;;;;;;;19.72;27.27;99114.91;1820255;78;21598;-66
2021/05/06 14:21:47;;;;;;;4.37;3.52;;;;;;;19.80;27.38;99110.58;1820271;78;22623;-65
2021/05/06 14:24:15;;;;;;;4.78;2.72;;;;;;;19.80;27.16;99105.12;1820210;78;21214;-70
2021/05/06 14:26:47;;;;;;;2.12;1.17;;;;;;;19.71;27.64;99102.38;1820306;78;21133;-70
2021/05/06 14:29:16;;;;;;;1.12;1.00;;;;;;;19.78;27.24;99101.34;1788584;78;21629;-71
2021/05/06 14:31:43;;;;;;;1.62;1.15;;;;;;;19.61;27.58;99106.84;1819981;78;21145;-71
2021/05/06 14:34:12;;;;;;;1.55;0.90;;;;;;;19.59;27.60;99100.89;1820208;78;21355;-71
2021/05/06 14:36:40;;;;;;;3.42;1.57;;;;;;;19.66;28.53;99114.05;1820236;78;21113;-69
2021/05/06 14:39:08;;;;;;;1.40;0.80;;;;;;;19.91;28.57;99117.27;1788319;78;21599;-71
2021/05/06 14:41:40;;;;;;;1.22;1.10;;;;;;;20.27;28.03;99107.28;1820194;78;21094;-69
2021/05/06 14:44:07;;;;;;;1.00;0.85;;;;;;;20.62;27.73;99101.93;1820555;77;21598;-67
2021/05/06 14:46:36;;;;;;;0.88;0.72;;;;;;;20.98;25.99;99118.33;1787910;79;22187;-65
2021/05/06 14:49:05;;;;;;;2.27;1.05;;;;;;;21.13;24.96;99126.78;1800930;78;21227;-68
2021/05/06 14:51:33;;;;;;;3.27;0.90;;;;;;;21.04;24.48;99111.54;1789182;78;21034;-64
2021/05/06 14:54:04;;;;;;;4.25;0.70;;;;;;;20.87;24.50;99106.41;1820242;78;21141;-67
2021/05/06 14:56:33;;;;;;;1.85;0.95;;;;;;;20.83;24.15;99117.78;1820267;78;21563;-66
2021/05/06 14:59:01;;;;;;;7.03;1.70;;;;;;;20.86;22.74;99120.44;1819901;78;21196;-65
2021/05/06 15:01:33;;;;;;;4.40;1.25;;;;;;;20.93;22.64;99108.95;1770887;80;21582;-65
2021/05/06 15:04:01;;;;;;;1.65;1.20;;;;;;;20.79;22.21;99106.48;1725267;81;21515;-64
2021/05/06 15:06:29;;;;;;;1.52;0.93;;;;;;;20.63;21.99;99123.20;1753070;81;21126;-65
2021/05/06 15:09:03;;;;;;;2.47;1.32;;;;;;;20.51;21.74;99125.84;1753210;81;21161;-65
2021/05/06 15:11:29;;;;;;;6.03;1.20;;;;;;;20.46;22.45;99118.64;1753116;81;22345;-68
2021/05/06 15:13:56;;;;;;;1.57;1.37;;;;;;;20.50;22.40;99135.97;1701796;81;21177;-66